createdAt,value
2023-09-14T00:04:04.706Z,28.6
2023-09-14T00:08:47.423Z,35.2
2023-09-14T00:13:30.171Z,37.59
2023-09-14T00:18:12.949Z,31.4
2023-09-14T00:22:55.610Z,33.8
2023-09-14T00:27:38.380Z,38.9
2023-09-14T00:32:21.076Z,35.9
2023-09-14T00:37:03.170Z,31.8
2023-09-14T00:41:45.830Z,32.9
2023-09-14T00:51:11.292Z,35.5
2023-09-14T00:55:54.004Z,34
2023-09-14T01:00:36.771Z,36.5
2023-09-14T01:05:19.464Z,43.7
2023-09-14T01:10:02.176Z,34.8
2023-09-14T01:14:44.964Z,37.59
2023-09-14T01:19:27.701Z,38
2023-09-14T01:24:10.431Z,33.4
2023-09-14T01:28:53.134Z,32.7
2023-09-14T01:33:35.842Z,35.59
2023-09-14T01:38:18.612Z,31.4
2023-09-14T01:43:01.295Z,30.6
2023-09-14T01:47:44.033Z,31.7
2023-09-14T01:52:26.769Z,30.6
2023-09-14T02:01:52.253Z,32.4
2023-09-14T02:06:35.021Z,33.8
2023-09-14T02:11:17.712Z,31.3
2023-09-14T02:16:00.434Z,30.5
2023-09-14T02:20:43.147Z,39
2023-09-14T02:25:25.897Z,28.6
2023-09-14T02:30:08.623Z,24.6
2023-09-14T02:34:51.336Z,27.7
2023-09-14T02:39:34.107Z,23.6
2023-09-14T02:44:16.150Z,26.3
2023-09-14T02:48:58.846Z,26.6
2023-09-14T02:53:41.613Z,27.5
2023-09-14T02:58:23.573Z,29.7
2023-09-14T03:03:06.308Z,30.2
2023-09-14T03:12:31.813Z,21.4
2023-09-14T03:17:14.520Z,26.6
2023-09-14T03:21:57.289Z,27.5
2023-09-14T03:26:40.074Z,27.4
2023-09-14T03:31:22.693Z,31
2023-09-14T03:36:05.418Z,27.5
2023-09-14T03:40:48.225Z,24.6
2023-09-14T03:45:30.908Z,30.4
2023-09-14T03:50:13.612Z,38.4
2023-09-14T03:54:56.361Z,30.9
2023-09-14T03:59:39.123Z,26.6
2023-09-14T04:04:21.817Z,27.9
2023-09-14T04:09:03.811Z,37
2023-09-14T04:13:46.547Z,33.9
2023-09-14T04:23:12.023Z,39.7
2023-09-14T04:27:54.784Z,40.4
2023-09-14T04:32:37.471Z,32.59
2023-09-14T04:37:20.195Z,34.8
2023-09-14T04:42:02.951Z,31.7
2023-09-14T04:46:45.647Z,29.9
2023-09-14T04:51:28.382Z,34.59
2023-09-14T04:56:11.122Z,34.7
2023-09-14T05:00:52.931Z,30.1
2023-09-14T05:05:34.510Z,39.09
2023-09-14T05:10:17.005Z,32.59
2023-09-14T05:14:59.517Z,35.2
2023-09-14T05:24:24.515Z,35
2023-09-14T05:29:07.020Z,30.5
2023-09-14T05:33:49.417Z,27.3
2023-09-14T05:38:31.895Z,27.4
2023-09-14T05:43:14.423Z,23.7
2023-09-14T05:47:56.924Z,26.9
2023-09-14T05:52:39.420Z,26.7
2023-09-14T05:57:21.915Z,25.4
2023-09-14T06:02:04.319Z,23.7
2023-09-14T06:11:29.353Z,22.1
2023-09-14T06:16:11.813Z,29.4
2023-09-14T06:20:54.372Z,17.4
2023-09-14T06:25:36.811Z,22.5
2023-09-14T06:30:19.315Z,19.1
2023-09-14T06:35:01.711Z,22.9
2023-09-14T06:39:44.221Z,20.1
2023-09-14T06:49:09.217Z,24.7
2023-09-14T06:58:34.214Z,24.2
2023-09-14T07:03:16.608Z,19.6
2023-09-14T07:07:59.114Z,20.4
2023-09-14T07:12:41.612Z,19.7
2023-09-14T07:17:24.062Z,17.79
2023-09-14T07:22:06.805Z,21.2
2023-09-14T07:26:49.114Z,22.6
2023-09-14T07:31:30.716Z,29.5
2023-09-14T07:36:13.213Z,23.2
2023-09-14T07:45:38.112Z,18.1
2023-09-14T07:50:19.775Z,18.9
2023-09-14T07:55:02.210Z,20.6
2023-09-14T07:59:44.711Z,12.9
2023-09-14T08:04:27.213Z,15
2023-09-14T08:09:09.714Z,19.1
2023-09-14T08:13:52.217Z,16.9
2023-09-14T08:18:34.672Z,21.8
2023-09-14T08:23:17.117Z,17.2
2023-09-14T08:32:42.116Z,18.4
2023-09-14T08:37:24.617Z,18
2023-09-14T08:42:07.178Z,18.9
2023-09-14T08:46:48.770Z,17.5
2023-09-14T08:51:30.302Z,18.29
2023-09-14T08:56:12.801Z,14.4
2023-09-14T09:00:55.304Z,18.79
2023-09-14T09:05:37.810Z,13.7
2023-09-14T09:10:20.295Z,9.8
2023-09-14T09:19:45.204Z,15.1
2023-09-14T09:24:27.706Z,9
2023-09-14T09:29:10.200Z,17.7
2023-09-14T09:33:52.709Z,10.2
2023-09-14T09:38:35.195Z,13.7
2023-09-14T09:43:17.831Z,11
2023-09-14T09:48:00.109Z,13.8
2023-09-14T09:52:42.599Z,17.1
2023-09-14T09:57:25.105Z,8.2
2023-09-14T10:06:49.352Z,8.39
2023-09-14T10:16:14.098Z,8.3
2023-09-14T10:20:56.671Z,9.7
2023-09-14T10:25:39.102Z,13.2
2023-09-14T10:30:21.611Z,9.1
2023-09-14T10:35:04.097Z,7.3
2023-09-14T10:39:46.597Z,6.8
2023-09-14T10:44:29.110Z,4.3
2023-09-14T10:53:54.123Z,14
2023-09-14T11:03:19.416Z,11
2023-09-14T11:08:01.509Z,6.6
2023-09-14T11:12:44.019Z,9.2
2023-09-14T11:17:26.449Z,9.7
2023-09-14T11:22:09.003Z,10.1
2023-09-14T11:26:51.448Z,7.5
2023-09-14T11:31:33.910Z,5
2023-09-14T11:40:59.121Z,5.3
2023-09-14T11:45:41.302Z,6.9
2023-09-14T11:50:23.794Z,5.4
2023-09-14T11:59:48.813Z,5
2023-09-14T12:04:31.310Z,3.9
2023-09-14T12:09:13.842Z,6.4
2023-09-14T12:13:56.221Z,7
2023-09-14T12:18:38.693Z,4.19
2023-09-14T12:28:03.694Z,4.3
2023-09-14T12:32:46.190Z,4.4
2023-09-14T12:37:28.696Z,3.1
2023-09-14T12:42:11.215Z,4.3
2023-09-14T12:46:53.601Z,4
2023-09-14T12:56:18.913Z,3.1
2023-09-14T13:01:00.829Z,3.9
2023-09-14T13:05:43.585Z,4.5
2023-09-14T13:10:26.315Z,4.4
2023-09-14T13:19:51.807Z,2.09
2023-09-14T13:24:34.513Z,2.5
2023-09-14T13:29:17.335Z,3.3
2023-09-14T13:34:00.020Z,2.7
2023-09-14T13:38:42.707Z,3.1
2023-09-14T13:43:25.447Z,7.5
2023-09-14T13:52:50.894Z,3.6
2023-09-14T13:57:33.713Z,5.2
2023-09-14T14:02:16.363Z,2.6
2023-09-14T14:06:58.420Z,2.9
2023-09-14T14:11:41.120Z,5
2023-09-14T14:16:23.849Z,4
2023-09-14T14:21:06.608Z,3.3
2023-09-14T14:30:32.048Z,2.7
2023-09-14T14:35:14.751Z,9.39
2023-09-14T14:39:57.535Z,2.6
2023-09-14T14:44:40.248Z,2.3
2023-09-14T14:49:23.026Z,2.9
2023-09-14T14:54:04.830Z,3.2
2023-09-14T14:58:47.315Z,1.9
2023-09-14T15:03:29.722Z,2.7
2023-09-14T15:08:12.214Z,2.5
2023-09-14T15:17:37.233Z,1.8
2023-09-14T15:27:01.277Z,2.7
2023-09-14T15:36:26.231Z,3.3
2023-09-14T15:41:08.734Z,2.4
2023-09-14T15:45:51.238Z,2.6
2023-09-14T15:55:16.175Z,3.5
2023-09-14T16:04:41.143Z,4.6
2023-09-14T16:14:06.153Z,2.2
2023-09-14T16:18:48.602Z,2.3
2023-09-14T16:23:31.072Z,2
2023-09-14T16:28:12.756Z,5.3
2023-09-14T16:32:55.255Z,3.8
2023-09-14T16:37:37.646Z,2.3
2023-09-14T16:42:20.153Z,1.9
2023-09-14T16:47:02.660Z,3.3
2023-09-14T16:51:45.166Z,2.3
2023-09-14T17:01:09.262Z,9.5
2023-09-14T17:05:50.856Z,2.3
2023-09-14T17:10:33.360Z,6.5
2023-09-14T17:15:15.807Z,4.6
2023-09-14T17:19:58.354Z,8.2
2023-09-14T17:24:39.929Z,4.9
2023-09-14T17:29:22.470Z,6.2
2023-09-14T17:34:04.884Z,5.2
2023-09-14T17:38:47.361Z,3.1
2023-09-14T17:48:12.351Z,4
2023-09-14T17:52:54.832Z,4.4
2023-09-14T17:57:37.361Z,4.19
2023-09-14T18:02:19.851Z,4.19
2023-09-14T18:07:02.256Z,4.5
2023-09-14T18:11:44.747Z,4
2023-09-14T18:16:27.209Z,7.3
2023-09-14T18:21:09.754Z,4.4
2023-09-14T18:25:52.254Z,5.9
2023-09-14T18:35:16.360Z,4.6
2023-09-14T18:39:58.852Z,4.6
2023-09-14T18:44:41.259Z,5
2023-09-14T18:49:23.752Z,7.1
2023-09-14T18:54:06.250Z,6.3
2023-09-14T18:58:48.753Z,5.8
2023-09-14T19:03:31.249Z,4.8
2023-09-14T19:08:13.689Z,5.3
2023-09-14T19:12:56.163Z,8.89
2023-09-14T19:22:20.370Z,5
2023-09-14T19:27:01.945Z,5.6
2023-09-14T19:31:44.449Z,7.8
2023-09-14T19:36:26.847Z,6.7
2023-09-14T19:41:09.353Z,6.4
2023-09-14T19:45:51.840Z,7.2
2023-09-14T19:50:34.443Z,10.9
2023-09-14T19:55:15.924Z,8.2
2023-09-14T19:59:58.447Z,5.5
2023-09-14T20:09:23.375Z,5.9
2023-09-14T20:14:05.844Z,7.4
2023-09-14T20:18:48.348Z,7.6
2023-09-14T20:23:30.845Z,6.8
2023-09-14T20:28:13.347Z,8.2
2023-09-14T20:32:55.845Z,6.5
2023-09-14T20:37:38.341Z,9.7
2023-09-14T20:42:20.777Z,6.6
2023-09-14T20:47:03.251Z,7.7
2023-09-14T20:56:28.233Z,9.1
2023-09-14T21:01:10.738Z,8.2
2023-09-14T21:05:53.191Z,6.3
2023-09-14T21:10:34.857Z,8.8
2023-09-14T21:15:17.382Z,22
2023-09-14T21:19:59.751Z,7.9
2023-09-14T21:24:42.238Z,8
2023-09-14T21:29:24.734Z,9
2023-09-14T21:34:07.226Z,7.5
2023-09-14T21:43:32.237Z,9.3
2023-09-14T21:48:14.739Z,8.39
2023-09-14T21:52:57.141Z,9.6
2023-09-14T21:57:39.637Z,8.3
2023-09-14T22:02:22.152Z,13.8
2023-09-14T22:07:04.584Z,9
2023-09-14T22:11:46.239Z,11.3
2023-09-14T22:16:28.735Z,10.8
2023-09-14T22:21:11.234Z,8.8
2023-09-14T22:30:36.145Z,7.3
2023-09-14T22:35:18.619Z,11
2023-09-14T22:40:01.092Z,7.2
2023-09-14T22:44:43.635Z,6.4
2023-09-14T22:49:26.140Z,4.69
2023-09-14T22:54:08.565Z,5.6
2023-09-14T22:58:51.029Z,6.2
2023-09-14T23:03:33.543Z,7.1
2023-09-14T23:08:16.022Z,7.7
2023-09-14T23:17:40.308Z,10.9
2023-09-14T23:22:22.640Z,4.6
2023-09-14T23:27:05.122Z,6.4
2023-09-14T23:31:47.554Z,6.6
2023-09-14T23:36:30.039Z,6.5
2023-09-14T23:41:12.524Z,8.3
2023-09-14T23:45:55.023Z,6
2023-09-14T23:50:37.487Z,8.3
2023-09-14T23:55:19.978Z,8.7
